Time;durP1;ratioP1;P1;durP2;ratioP2;P2;SDS_P1;SDS_P2;PMS_P1;PMS_P2;Temp;Humidity;BMP_temperature;BMP_pressure;BME280_temperature;BME280_humidity;BME280_pressure;Samples;Min_cycle;Max_cycle;Signal;HPM_P1;HPM_P2
2022/03/14 00:01:30;;;;;;;27.03;12.10;;;;;;;5.95;23.46;101763.09;5354900;32;44888;-62
2022/03/14 00:04:34;;;;;;;23.27;12.33;;;;;;;5.18;23.88;101764.53;5349954;32;34561;-70
2022/03/14 00:07:37;;;;;;;29.17;13.00;;;;;;;5.55;23.40;101767.31;5368726;32;34800;-70
2022/03/14 00:10:39;;;;;;;25.37;12.90;;;;;;;6.22;22.61;101772.69;5361720;32;36121;-63
2022/03/14 00:13:46;;;;;;;28.00;13.93;;;;;;;5.71;23.12;101775.16;5361175;32;34188;-64
2022/03/14 00:16:49;;;;;;;24.17;13.03;;;;;;;6.04;23.42;101785.72;5360823;32;34794;-71
2022/03/14 00:19:52;;;;;;;25.53;13.00;;;;;;;5.64;24.43;101780.38;5349793;32;34278;-70
2022/03/14 00:22:54;;;;;;;29.57;15.30;;;;;;;5.61;24.14;101781.25;5364020;32;35384;-70
2022/03/14 00:25:56;;;;;;;38.10;15.00;;;;;;;5.77;23.88;101782.16;5339126;32;34714;-63
2022/03/14 00:28:58;;;;;;;32.57;14.20;;;;;;;5.87;23.84;101790.88;5365332;32;44882;-63
2022/03/14 00:32:00;;;;;;;27.27;13.60;;;;;;;5.40;24.43;101787.22;5363287;32;35266;-70
2022/03/14 00:35:03;;;;;;;28.07;13.67;;;;;;;5.28;24.85;101787.19;5361813;32;35504;-64
2022/03/14 00:38:05;;;;;;;31.00;14.83;;;;;;;5.49;24.43;101775.13;5356837;32;34836;-64
2022/03/14 00:41:08;;;;;;;28.93;14.13;;;;;;;5.00;25.40;101785.28;5350657;32;34158;-69
2022/03/14 00:44:17;;;;;;;29.20;13.60;;;;;;;5.03;25.42;101782.72;5343081;32;34722;-63
2022/03/14 00:47:19;;;;;;;29.53;14.17;;;;;;;5.32;25.02;101786.31;5359497;32;36366;-70
2022/03/14 00:50:22;;;;;;;25.77;13.67;;;;;;;5.14;25.06;101781.00;5354614;32;34602;-64
2022/03/14 00:53:24;;;;;;;34.03;14.90;;;;;;;4.80;25.72;101790.38;5355031;32;34557;-69
2022/03/14 00:56:27;;;;;;;28.30;14.20;;;;;;;4.86;25.67;101796.50;5361345;32;34982;-70
2022/03/14 00:59:29;;;;;;;33.70;14.23;;;;;;;5.26;24.74;101790.63;5367995;32;44510;-70
2022/03/14 01:02:31;;;;;;;25.57;13.50;;;;;;;4.21;26.40;101801.16;5345381;32;34791;-70
2022/03/14 01:05:34;;;;;;;36.10;14.50;;;;;;;4.27;26.45;101796.88;5368401;32;35326;-64
2022/03/14 01:08:36;;;;;;;31.80;14.57;;;;;;;4.89;25.48;101793.00;5352295;32;34705;-70
2022/03/14 01:11:38;;;;;;;28.37;13.73;;;;;;;4.35;26.28;101797.81;5363176;32;35239;-71
2022/03/14 01:14:43;;;;;;;27.80;14.03;;;;;;;4.77;25.88;101795.56;5351925;32;34452;-71
2022/03/14 01:17:45;;;;;;;25.63;13.20;;;;;;;4.73;25.56;101794.66;5357165;32;34401;-63
2022/03/14 01:20:47;;;;;;;34.07;14.57;;;;;;;4.40;26.20;101797.00;5375555;32;36103;-69
2022/03/14 01:23:50;;;;;;;27.77;14.27;;;;;;;3.98;26.67;101778.38;5355602;32;35307;-70
2022/03/14 01:26:52;;;;;;;28.23;13.43;;;;;;;3.62;27.55;101799.66;5375293;32;34478;-70
2022/03/14 01:29:55;;;;;;;24.30;13.10;;;;;;;3.31;28.13;101803.59;5354694;32;34218;-70
2022/03/14 01:33:00;;;;;;;28.30;13.35;;;;;;;3.78;27.65;101798.97;5347410;32;45047;-62
2022/03/14 01:36:02;;;;;;;30.27;13.43;;;;;;;3.56;28.07;101812.59;5362105;32;35669;-63
2022/03/14 01:39:05;;;;;;;27.10;13.73;;;;;;;2.97;28.99;101815.25;5358656;32;35352;-70
2022/03/14 01:42:07;;;;;;;27.40;13.57;;;;;;;3.57;28.16;101811.75;5374058;32;35200;-70
2022/03/14 01:45:10;;;;;;;25.20;13.17;;;;;;;2.88;29.21;101813.37;5314336;32;34921;-62
2022/03/14 01:48:12;;;;;;;27.45;13.77;;;;;;;3.10;28.70;101826.72;5375207;32;34176;-71
2022/03/14 01:51:16;;;;;;;29.37;13.80;;;;;;;3.13;28.86;101825.00;5360382;32;34841;-70
2022/03/14 01:54:19;;;;;;;28.38;13.35;;;;;;;3.48;28.40;101829.84;5375683;32;34693;-70
2022/03/14 01:57:21;;;;;;;29.73;14.50;;;;;;;3.47;28.45;101809.87;5354925;32;34896;-63
2022/03/14 02:00:23;;;;;;;29.70;14.13;;;;;;;3.80;28.10;101823.28;5356600;32;34109;-70
2022/03/14 02:03:25;;;;;;;31.00;14.47;;;;;;;3.07;29.75;101835.31;5369881;32;34679;-63
2022/03/14 02:06:28;;;;;;;29.17;15.10;;;;;;;3.79;29.39;101831.94;5364561;32;44502;-64
2022/03/14 02:09:30;;;;;;;31.13;15.27;;;;;;;3.93;29.34;101831.22;5377368;32;34719;-63
2022/03/14 02:12:32;;;;;;;27.53;14.90;;;;;;;2.82;31.78;101838.38;5353951;32;34997;-70
2022/03/14 02:15:35;;;;;;;31.37;15.33;;;;;;;2.72;32.21;101845.16;5364158;32;34321;-63
2022/03/14 02:18:38;;;;;;;33.72;16.83;;;;;;;3.06;32.16;101853.47;5356624;32;35126;-70
2022/03/14 02:21:40;;;;;;;34.17;16.83;;;;;;;3.14;31.94;101847.53;5351783;32;34614;-63
2022/03/14 02:24:46;;;;;;;38.33;17.33;;;;;;;2.85;32.85;101854.91;5371297;32;34981;-64
2022/03/14 02:27:50;;;;;;;33.67;15.90;;;;;;;2.30;34.04;101866.91;5345305;32;34727;-62
2022/03/14 02:30:53;;;;;;;33.80;17.10;;;;;;;2.41;33.94;101859.34;5365827;32;35352;-70
2022/03/14 02:33:55;;;;;;;36.10;17.97;;;;;;;3.00;33.14;101867.25;5352396;32;36437;-63
2022/03/14 02:36:58;;;;;;;35.63;17.20;;;;;;;2.83;33.30;101863.50;5362256;32;43062;-63
2022/03/14 02:40:00;;;;;;;40.97;18.30;;;;;;;2.22;34.69;101865.03;5358577;32;35069;-70
2022/03/14 02:43:02;;;;;;;36.17;17.60;;;;;;;2.39;34.17;101864.50;5345446;32;34145;-70
2022/03/14 02:46:04;;;;;;;35.83;18.40;;;;;;;2.42;34.31;101868.88;5364829;32;34986;-68
2022/03/14 02:49:09;;;;;;;33.13;17.33;;;;;;;2.92;33.35;101861.06;5353071;32;34537;-68
2022/03/14 02:52:11;;;;;;;33.87;16.30;;;;;;;2.84;33.47;101862.69;5372491;32;34699;-69
2022/03/14 02:55:15;;;;;;;33.40;17.67;;;;;;;3.02;33.01;101873.31;5354446;32;34752;-69
2022/03/14 02:58:17;;;;;;;37.50;16.80;;;;;;;2.98;32.77;101866.34;5360185;32;35638;-62
2022/03/14 03:01:21;;;;;;;37.43;17.63;;;;;;;3.45;32.04;101866.16;5373804;32;34831;-70
2022/03/14 03:04:24;;;;;;;31.92;17.33;;;;;;;2.89;33.12;101874.84;5353976;32;33845;-63
2022/03/14 03:07:26;;;;;;;36.30;17.27;;;;;;;3.31;32.87;101873.78;5377132;32;34620;-62
2022/03/14 03:10:28;;;;;;;39.10;18.50;;;;;;;3.16;33.09;101878.75;5350023;32;44575;-63
2022/03/14 03:13:35;;;;;;;37.70;17.33;;;;;;;2.30;34.95;101884.22;5357483;32;34051;-64
2022/03/14 03:16:37;;;;;;;40.50;18.73;;;;;;;2.88;33.89;101883.50;5350668;32;34201;-69
2022/03/14 03:19:40;;;;;;;34.73;18.07;;;;;;;2.55;34.78;101881.22;5355741;32;33055;-69
2022/03/14 03:22:42;;;;;;;36.37;17.63;;;;;;;2.71;35.03;101892.75;5368246;32;33922;-70
2022/03/14 03:25:44;;;;;;;37.80;18.80;;;;;;;2.67;35.41;101894.41;5360820;32;34666;-63
2022/03/14 03:28:46;;;;;;;37.73;18.17;;;;;;;3.03;35.16;101888.09;5369097;32;34029;-62
2022/03/14 03:31:48;;;;;;;37.50;18.63;;;;;;;3.51;34.78;101884.44;5357085;32;34656;-63
2022/03/14 03:34:51;;;;;;;38.93;18.17;;;;;;;3.58;34.91;101891.47;5361987;32;33833;-69
2022/03/14 03:37:54;;;;;;;34.70;18.50;;;;;;;2.91;36.34;101906.06;5367159;32;33851;-69
2022/03/14 03:40:57;;;;;;;41.37;19.80;;;;;;;2.30;38.04;101910.16;5360772;32;34185;-65
2022/03/14 03:43:59;;;;;;;40.50;19.10;;;;;;;1.91;39.98;101924.09;5349673;32;34708;-70
2022/03/14 03:47:02;;;;;;;37.43;19.07;;;;;;;2.02;40.28;101917.41;5356847;32;34597;-64
2022/03/14 03:50:04;;;;;;;38.40;18.13;;;;;;;2.29;39.24;101918.78;5377974;32;34130;-71
2022/03/14 03:53:07;;;;;;;39.30;18.63;;;;;;;2.10;39.61;101918.44;5358397;32;35315;-71
2022/03/14 03:56:09;;;;;;;40.40;18.97;;;;;;;1.83;40.47;101913.56;5374612;32;34564;-70
2022/03/14 03:59:11;;;;;;;39.23;20.00;;;;;;;1.48;41.56;101918.00;5363131;32;34605;-70
2022/03/14 04:02:19;;;;;;;40.17;18.97;;;;;;;1.93;41.13;101924.09;5360591;32;34838;-63
2022/03/14 04:05:27;;;;;;;33.87;17.70;;;;;;;2.62;39.97;101924.59;5364875;32;34607;-63
2022/03/14 04:08:30;;;;;;;39.47;18.47;;;;;;;3.41;38.54;101913.75;5351862;32;44350;-63
2022/03/14 04:11:32;;;;;;;46.43;19.63;;;;;;;2.35;40.41;101917.19;5374671;32;34533;-71
2022/03/14 04:14:35;;;;;;;39.27;19.53;;;;;;;1.27;43.95;101928.72;5357834;32;36092;-63
2022/03/14 04:17:42;;;;;;;38.03;19.13;;;;;;;1.39;44.03;101933.31;5365245;32;34644;-63
2022/03/14 04:20:48;;;;;;;52.77;21.07;;;;;;;1.04;45.31;101924.72;5371892;32;34752;-64
2022/03/14 04:23:50;;;;;;;43.67;21.00;;;;;;;1.23;45.15;101933.81;5365240;32;35438;-63
2022/03/14 04:26:52;;;;;;;43.20;19.97;;;;;;;1.23;45.23;101939.88;5369341;32;35005;-70
2022/03/14 04:29:55;;;;;;;48.33;20.07;;;;;;;1.24;45.34;101939.03;5356695;32;35986;-63
2022/03/14 04:32:58;;;;;;;43.35;20.80;;;;;;;1.18;45.38;101938.00;5363031;32;44906;-71
2022/03/14 04:36:00;;;;;;;44.43;19.60;;;;;;;0.90;46.35;101947.69;5360088;32;35288;-63
2022/03/14 04:39:04;;;;;;;43.63;19.37;;;;;;;1.81;44.39;101941.19;5365447;32;34412;-70
2022/03/14 04:42:07;;;;;;;50.15;19.30;;;;;;;1.61;44.18;101957.97;5375736;32;34155;-70
2022/03/14 04:45:09;;;;;;;42.83;19.48;;;;;;;1.63;43.93;101940.78;5327524;32;34153;-70
2022/03/14 04:48:12;;;;;;;42.67;19.17;;;;;;;1.94;43.79;101951.81;5363317;32;34978;-64
2022/03/14 04:51:14;;;;;;;40.03;18.77;;;;;;;2.67;41.67;101954.12;5360041;32;34697;-70
2022/03/14 04:54:16;;;;;;;45.30;19.60;;;;;;;2.86;40.34;101959.66;5347141;32;34034;-63
2022/03/14 04:57:19;;;;;;;40.00;19.57;;;;;;;1.52;43.31;101963.84;5349832;32;34764;-70
2022/03/14 05:00:22;;;;;;;39.30;18.50;;;;;;;1.74;43.25;101961.72;5356531;32;34464;-63
2022/03/14 05:03:24;;;;;;;38.88;19.58;;;;;;;3.02;39.88;101958.16;5367602;32;34565;-70
2022/03/14 05:06:27;;;;;;;47.73;18.57;;;;;;;2.52;40.38;101963.34;5361373;32;45130;-64
2022/03/14 05:09:29;;;;;;;38.70;18.97;;;;;;;0.87;44.45;101981.25;5368408;32;34644;-70
2022/03/14 05:12:34;;;;;;;36.93;18.23;;;;;;;2.01;42.07;101977.03;5361486;32;34536;-62
2022/03/14 05:15:36;;;;;;;36.80;18.97;;;;;;;2.31;41.48;101980.22;5357085;32;35282;-70
2022/03/14 05:18:38;;;;;;;37.20;18.00;;;;;;;2.95;39.85;101981.44;5361546;32;34757;-64
2022/03/14 05:21:40;;;;;;;39.53;19.13;;;;;;;2.45;40.65;101980.53;5354579;32;35008;-63
2022/03/14 05:24:42;;;;;;;39.97;18.63;;;;;;;1.74;43.29;101990.25;5364820;32;34716;-69
2022/03/14 05:27:45;;;;;;;42.20;19.93;;;;;;;2.85;41.11;101986.47;5352470;32;34871;-63
2022/03/14 05:30:47;;;;;;;39.63;20.10;;;;;;;2.48;41.68;101983.16;5367148;32;33981;-70
2022/03/14 05:33:49;;;;;;;47.43;20.40;;;;;;;1.59;44.32;101986.47;5353941;32;35448;-63
2022/03/14 05:36:51;;;;;;;42.00;19.97;;;;;;;1.78;44.21;102005.03;5360366;32;34228;-69
2022/03/14 05:39:54;;;;;;;39.93;20.33;;;;;;;1.88;43.82;102000.09;5340673;32;34967;-63
2022/03/14 05:42:56;;;;;;;35.73;18.80;;;;;;;1.92;44.09;102008.81;5344257;32;35671;-71
2022/03/14 05:45:58;;;;;;;56.53;21.03;;;;;;;1.88;44.15;102005.28;5366745;32;45149;-71
2022/03/14 05:49:01;;;;;;;47.83;21.10;;;;;;;2.18;43.76;102004.19;5361689;32;35238;-63
2022/03/14 05:52:04;;;;;;;39.70;20.00;;;;;;;2.92;42.29;102009.09;5363164;32;34535;-65
2022/03/14 05:55:06;;;;;;;35.73;19.57;;;;;;;3.80;40.28;102004.47;5349860;32;34118;-71
2022/03/14 05:58:08;;;;;;;57.00;21.27;;;;;;;5.72;36.55;102003.00;5366590;32;35710;-71
2022/03/14 06:01:11;;;;;;;41.70;19.47;;;;;;;7.07;33.06;101999.19;5356259;32;34078;-69
2022/03/14 06:04:13;;;;;;;39.37;21.13;;;;;;;6.15;33.97;102005.91;5350889;32;34597;-63
2022/03/14 06:07:15;;;;;;;36.47;20.23;;;;;;;7.95;30.58;102011.34;5377022;32;34094;-64
2022/03/14 06:10:17;;;;;;;40.13;19.47;;;;;;;6.85;31.14;102018.34;5348617;32;34418;-64
2022/03/14 06:13:20;;;;;;;36.63;20.17;;;;;;;5.61;33.71;102020.34;5369158;32;35182;-72
2022/03/14 06:16:22;;;;;;;36.40;19.40;;;;;;;7.68;30.11;102027.13;5347613;32;35038;-70
2022/03/14 06:19:24;;;;;;;36.90;20.97;;;;;;;7.43;29.81;102029.75;5358223;32;36635;-71
2022/03/14 06:22:27;;;;;;;41.17;20.93;;;;;;;6.64;31.43;102024.41;5354025;32;44886;-64
2022/03/14 06:25:29;;;;;;;41.37;24.53;;;;;;;6.00;32.51;102040.63;5349357;32;44335;-65
2022/03/14 06:28:31;;;;;;;40.87;20.30;;;;;;;8.63;28.31;102028.62;5370079;32;34504;-72
2022/03/14 06:31:34;;;;;;;38.33;19.83;;;;;;;7.96;28.31;102038.41;5349967;32;34908;-70
2022/03/14 06:34:39;;;;;;;35.90;20.52;;;;;;;10.17;25.06;102029.06;5363327;32;33915;-64
2022/03/14 06:37:43;;;;;;;35.33;20.63;;;;;;;9.97;25.09;102028.44;5348963;32;33839;-72
2022/03/14 06:40:47;;;;;;;40.77;22.03;;;;;;;8.68;25.05;102039.06;5342929;32;34954;-65
2022/03/14 06:43:52;;;;;;;40.37;21.47;;;;;;;6.86;29.64;102049.72;5354080;32;35522;-70
2022/03/14 06:46:55;;;;;;;36.37;21.53;;;;;;;8.75;26.59;102029.41;5347832;32;35156;-71
2022/03/14 06:49:58;;;;;;;38.13;20.42;;;;;;;9.52;25.32;102041.09;5369892;32;44545;-70
2022/03/14 06:53:00;;;;;;;37.87;21.13;;;;;;;7.95;26.93;102050.63;5363654;32;34024;-72
2022/03/14 06:56:02;;;;;;;42.03;20.97;;;;;;;8.02;27.19;102054.97;5352991;32;34789;-71
2022/03/14 06:59:04;;;;;;;35.67;21.00;;;;;;;8.05;27.11;102057.59;5349768;32;34107;-65
2022/03/14 07:02:07;;;;;;;34.63;20.87;;;;;;;8.08;26.86;102059.34;5346129;32;34743;-65
2022/03/14 07:05:16;;;;;;;32.95;20.25;;;;;;;7.87;26.83;102062.88;5372878;32;35229;-64
2022/03/14 07:08:19;;;;;;;43.07;21.33;;;;;;;9.72;24.67;102057.59;5351250;32;34646;-65
2022/03/14 07:11:21;;;;;;;31.30;19.70;;;;;;;8.52;25.89;102063.59;5362326;32;34594;-64
2022/03/14 07:14:23;;;;;;;33.87;19.43;;;;;;;8.30;25.63;102073.22;5351823;32;34564;-65
2022/03/14 07:17:25;;;;;;;35.07;19.87;;;;;;;9.19;23.75;102060.59;5377198;32;35763;-65
2022/03/14 07:20:28;;;;;;;32.17;20.03;;;;;;;9.89;23.06;102060.03;5358001;32;44773;-63
2022/03/14 07:23:30;;;;;;;34.50;19.55;;;;;;;9.86;23.21;102056.59;5352508;32;35097;-64
2022/03/14 07:26:32;;;;;;;33.57;19.80;;;;;;;10.47;22.23;102055.94;5378652;32;35318;-64
2022/03/14 07:29:34;;;;;;;32.93;20.40;;;;;;;9.52;23.54;102064.72;5349158;32;35706;-64
2022/03/14 07:32:36;;;;;;;34.13;20.00;;;;;;;10.12;23.00;102058.94;5370246;32;34887;-64
2022/03/14 07:35:39;;;;;;;32.03;19.30;;;;;;;9.71;23.48;102063.69;5353515;32;34827;-64
2022/03/14 07:38:41;;;;;;;31.63;21.00;;;;;;;11.75;20.98;102064.56;5375265;32;35720;-71
2022/03/14 07:41:43;;;;;;;39.83;20.70;;;;;;;10.25;22.95;102069.34;5356832;32;34804;-64
2022/03/14 07:44:46;;;;;;;30.20;18.17;;;;;;;10.55;22.68;102075.97;5324227;32;34949;-64
2022/03/14 07:47:49;;;;;;;24.53;16.20;;;;;;;10.80;21.11;102065.16;5374881;32;34262;-70
2022/03/14 07:50:52;;;;;;;26.73;15.30;;;;;;;12.48;18.79;102057.94;5359954;32;34694;-64
2022/03/14 07:53:54;;;;;;;28.77;17.42;;;;;;;11.97;18.57;102059.81;5370252;32;35932;-73
2022/03/14 07:56:56;;;;;;;30.07;17.87;;;;;;;11.92;18.94;102056.41;5362181;32;35160;-64
2022/03/14 07:59:59;;;;;;;29.73;18.07;;;;;;;11.97;19.05;102064.22;5363223;32;45069;-70
2022/03/14 08:03:01;;;;;;;27.58;17.35;;;;;;;12.16;18.70;102063.84;5362228;32;35117;-71
2022/03/14 08:06:07;;;;;;;28.40;17.27;;;;;;;11.46;19.43;102075.56;5364104;32;34992;-64
2022/03/14 08:09:10;;;;;;;23.10;14.50;;;;;;;10.97;20.18;102072.81;5373281;32;34043;-66
2022/03/14 08:12:12;;;;;;;25.65;14.35;;;;;;;11.01;19.50;102075.41;5360392;32;34525;-64
2022/03/14 08:15:21;;;;;;;23.83;13.63;;;;;;;10.99;19.13;102081.56;5361260;32;34564;-66
2022/03/14 08:18:24;;;;;;;21.33;12.67;;;;;;;10.08;20.20;102080.87;5351432;32;34434;-65
2022/03/14 08:21:26;;;;;;;22.80;13.03;;;;;;;11.07;18.88;102085.81;5364613;32;34241;-64
2022/03/14 08:24:28;;;;;;;25.20;13.83;;;;;;;10.48;19.55;102084.81;5365426;32;46396;-64
2022/03/14 08:27:31;;;;;;;22.27;12.73;;;;;;;9.12;21.10;102095.63;5364190;32;36084;-64
2022/03/14 08:30:33;;;;;;;26.80;12.57;;;;;;;9.54;20.47;102091.88;5377674;32;34257;-71
2022/03/14 08:33:41;;;;;;;20.10;10.43;;;;;;;9.47;20.76;102096.28;5354067;32;34840;-71
2022/03/14 08:36:43;;;;;;;16.13;7.17;;;;;;;9.89;19.62;102081.03;5367033;32;34854;-69
2022/03/14 08:39:47;;;;;;;17.07;7.97;;;;;;;10.37;19.04;102086.72;5349100;32;34141;-64
2022/03/14 08:42:49;;;;;;;;;;;;;;;9.68;19.75;102091.75;5345848;32;35394;-70
2022/03/14 08:45:53;;;;;;;18.50;8.10;;;;;;;9.35;20.08;102091.13;5366966;32;35220;-71
2022/03/14 08:48:56;;;;;;;18.27;8.80;;;;;;;9.37;20.26;102083.22;5351393;32;35246;-71
2022/03/14 08:51:59;;;;;;;17.87;9.45;;;;;;;9.10;20.70;102085.16;5351378;32;46565;-64
2022/03/14 08:55:01;;;;;;;17.87;8.90;;;;;;;9.51;20.60;102086.63;5348966;32;34965;-65
2022/03/14 08:58:03;;;;;;;22.17;9.77;;;;;;;9.33;20.40;102085.00;5361298;32;35333;-71
2022/03/14 09:01:07;;;;;;;17.50;8.40;;;;;;;9.74;20.14;102078.56;5364457;32;34961;-64
2022/03/14 09:04:09;;;;;;;20.02;9.20;;;;;;;9.90;20.16;102084.53;5359000;32;34843;-64
2022/03/14 09:07:24;;;;;;;19.63;8.83;;;;;;;10.51;19.52;102081.31;5377627;32;34761;-65
2022/03/14 09:10:26;;;;;;;17.90;7.80;;;;;;;10.19;19.44;102084.25;5333544;32;35339;-72
2022/03/14 09:13:29;;;;;;;16.10;8.30;;;;;;;10.73;18.83;102074.00;5369851;32;44644;-71
2022/03/14 09:16:32;;;;;;;15.13;7.75;;;;;;;10.43;19.22;102070.87;5348882;32;33906;-72
2022/03/14 09:19:34;;;;;;;17.70;8.82;;;;;;;10.26;19.53;102080.72;5357172;32;34571;-64
2022/03/14 09:22:37;;;;;;;16.83;8.43;;;;;;;11.17;18.39;102070.78;5367224;32;34965;-64
2022/03/14 09:25:40;;;;;;;14.43;8.07;;;;;;;10.35;19.42;102077.09;5356840;32;35007;-72
2022/03/14 09:28:44;;;;;;;16.27;8.10;;;;;;;10.82;19.18;102080.03;5366990;32;33928;-71
2022/03/14 09:31:46;;;;;;;16.50;7.93;;;;;;;11.12;18.72;102078.72;5360232;32;34007;-65
2022/03/14 09:34:49;;;;;;;15.87;7.73;;;;;;;10.62;19.40;102082.03;5367284;32;34123;-71
2022/03/14 09:37:51;;;;;;;16.60;8.10;;;;;;;10.73;19.39;102074.88;5358825;32;34130;-72
2022/03/14 09:40:54;;;;;;;15.13;7.67;;;;;;;10.81;19.40;102075.66;5356072;32;35708;-71
2022/03/14 09:43:58;;;;;;;14.40;8.23;;;;;;;11.14;19.08;102081.31;5339199;32;35158;-74
2022/03/14 09:47:01;;;;;;;14.20;8.03;;;;;;;12.07;18.01;102056.13;5361976;32;43404;-64
2022/03/14 09:50:08;;;;;;;17.00;8.43;;;;;;;12.49;17.86;102074.63;5378223;32;34621;-65
2022/03/14 09:53:15;;;;;;;15.73;8.43;;;;;;;14.50;15.89;102062.72;5354534;32;34574;-66
2022/03/14 09:56:18;;;;;;;17.37;8.47;;;;;;;17.11;13.82;102059.09;5376688;32;34688;-71
2022/03/14 09:59:20;;;;;;;12.88;7.68;;;;;;;18.41;12.36;102046.44;5349565;32;34664;-66
2022/03/14 10:02:23;;;;;;;12.75;7.30;;;;;;;19.65;11.48;102048.53;5360144;32;34543;-65
2022/03/14 10:05:25;;;;;;;15.60;7.80;;;;;;;18.22;12.38;102053.53;5375594;32;34920;-66
2022/03/14 10:08:28;;;;;;;13.55;7.00;;;;;;;20.39;11.02;102042.84;5344511;32;45017;-65
2022/03/14 10:11:30;;;;;;;12.07;7.10;;;;;;;20.06;10.98;102052.66;5372751;32;33953;-65
2022/03/14 10:14:32;;;;;;;11.15;6.20;;;;;;;21.62;10.03;102035.00;5342594;32;34678;-69
2022/03/14 10:17:35;;;;;;;11.07;6.53;;;;;;;22.24;9.25;102036.66;5374538;32;35423;-66
2022/03/14 10:20:39;;;;;;;9.60;5.45;;;;;;;22.31;9.22;102030.84;5359433;32;34525;-69
2022/03/14 10:23:43;;;;;;;11.23;6.45;;;;;;;21.87;9.35;102030.84;5353002;32;34569;-72
2022/03/14 10:26:46;;;;;;;11.77;7.37;;;;;;;21.87;9.56;102030.84;5365100;32;33998;-66
2022/03/14 10:29:49;;;;;;;11.50;5.65;;;;;;;22.50;9.45;102029.69;5352206;32;34938;-65
2022/03/14 10:33:11;;;;;;;10.75;6.35;;;;;;;23.40;8.49;102037.22;5362601;32;35475;-72
2022/03/14 10:36:14;;;;;;;12.85;7.00;;;;;;;22.85;9.11;102030.09;5360720;32;34602;-67
2022/03/14 10:39:20;;;;;;;11.57;5.72;;;;;;;22.83;9.22;102032.88;5360188;32;33819;-72
2022/03/14 10:42:23;;;;;;;13.35;6.85;;;;;;;23.07;8.84;102033.13;5372025;32;35164;-65
2022/03/14 10:45:25;;;;;;;11.00;6.50;;;;;;;23.07;8.83;102022.41;5332692;32;34308;-66
2022/03/14 10:48:39;;;;;;;10.45;6.22;;;;;;;21.34;10.08;102032.25;5368629;32;42509;-71
2022/03/14 10:51:52;;;;;;;12.68;6.85;;;;;;;24.06;8.37;102017.47;5355138;32;34720;-67
2022/03/14 10:54:56;;;;;;;10.98;6.57;;;;;;;23.87;8.42;102033.16;5370195;32;35349;-65
2022/03/14 10:58:07;;;;;;;11.20;6.62;;;;;;;21.15;9.89;102029.72;5368272;32;45512;-66
2022/03/14 11:01:10;;;;;;;12.57;5.95;;;;;;;22.36;9.57;102028.72;5354422;32;35457;-67
2022/03/14 11:04:13;;;;;;;10.88;6.45;;;;;;;23.38;9.13;102028.41;5379728;32;34858;-66
2022/03/14 11:07:20;;;;;;;12.18;5.93;;;;;;;22.80;9.19;102026.84;5340476;32;34841;-72
2022/03/14 11:10:37;;;;;;;10.25;5.78;;;;;;;22.56;9.55;102022.12;5376838;32;34313;-71
2022/03/14 11:13:40;;;;;;;12.98;6.53;;;;;;;21.81;10.01;102026.72;5359447;32;34991;-71
2022/03/14 11:16:42;;;;;;;19.30;6.43;;;;;;;17.98;12.62;102034.22;5364703;32;34756;-73
2022/03/14 11:19:45;;;;;;;10.75;6.20;;;;;;;17.23;13.36;102033.81;5355033;32;34283;-65
2022/03/14 11:22:48;;;;;;;10.13;5.40;;;;;;;20.19;11.24;102019.03;5338707;32;34572;-71
2022/03/14 11:25:51;;;;;;;13.67;6.20;;;;;;;20.41;11.44;102008.03;5382242;32;34394;-71
2022/03/14 11:28:54;;;;;;;13.38;6.60;;;;;;;18.38;12.82;102011.97;5352489;32;35320;-64
2022/03/14 11:31:57;;;;;;;12.17;6.77;;;;;;;18.54;12.81;102013.91;5376899;32;45094;-65
2022/03/14 11:35:02;;;;;;;11.55;7.10;;;;;;;16.91;13.99;102012.06;5362380;32;34815;-72
2022/03/14 11:38:08;;;;;;;12.93;6.80;;;;;;;17.65;13.46;102014.38;5367913;32;35506;-73
2022/03/14 11:41:10;;;;;;;10.73;5.50;;;;;;;18.33;12.85;102005.12;5371959;32;35255;-67
2022/03/14 11:44:13;;;;;;;11.38;5.90;;;;;;;18.87;12.67;102000.84;5338441;32;32601;-65
2022/03/14 11:47:18;;;;;;;13.25;6.80;;;;;;;19.02;12.60;101989.44;5366081;32;35180;-65
2022/03/14 11:50:22;;;;;;;12.80;6.78;;;;;;;18.35;13.02;101982.84;5350266;32;34332;-72
2022/03/14 11:53:24;;;;;;;13.10;6.90;;;;;;;20.11;11.71;101994.56;5372461;32;34883;-72
2022/03/14 11:56:35;;;;;;;13.95;6.35;;;;;;;19.27;12.17;101982.91;5369407;32;34585;-73
2022/03/14 11:59:37;;;;;;;12.50;6.28;;;;;;;18.88;12.68;101982.13;5355369;32;36957;-72
2022/03/14 12:02:41;;;;;;;10.90;6.12;;;;;;;21.56;10.78;101987.19;5364872;32;34595;-71
2022/03/14 12:05:44;;;;;;;11.35;5.82;;;;;;;19.12;12.35;101985.38;5364507;32;34900;-72
2022/03/14 12:08:46;;;;;;;10.77;5.75;;;;;;;18.32;13.14;101993.63;5372251;32;36160;-65
2022/03/14 12:11:48;;;;;;;10.23;6.28;;;;;;;22.34;10.40;101974.38;5361276;32;34245;-66
2022/03/14 12:14:56;;;;;;;;;;;;;;;21.88;10.58;101973.69;5360928;32;34778;-67
2022/03/14 12:17:58;;;;;;;10.70;6.00;;;;;;;24.28;8.96;101955.91;5374824;32;44629;-66
2022/03/14 12:21:03;;;;;;;10.43;5.85;;;;;;;22.46;10.17;101971.88;5359688;32;34700;-72
2022/03/14 12:24:05;;;;;;;11.07;6.70;;;;;;;20.79;11.25;101969.41;5366202;32;35300;-71
2022/03/14 12:27:29;;;;;;;17.62;10.32;;;;;;;21.10;11.03;101959.63;5348651;32;35004;-65
2022/03/14 12:30:32;;;;;;;10.25;5.95;;;;;;;19.04;12.46;101981.38;5364723;32;45385;-67
2022/03/14 12:33:38;;;;;;;9.82;5.40;;;;;;;20.72;11.30;101969.84;5367974;32;34278;-71
2022/03/14 12:36:42;;;;;;;10.15;5.53;;;;;;;18.84;12.85;101977.88;5365027;32;34162;-68
2022/03/14 12:39:44;;;;;;;15.10;6.07;;;;;;;20.44;11.96;101963.34;5363521;32;36267;-65
2022/03/14 12:43:10;;;;;;;13.57;5.57;;;;;;;22.69;10.45;101955.19;5353049;32;34390;-70
2022/03/14 12:46:12;;;;;;;13.68;6.10;;;;;;;22.89;10.28;101949.41;5366333;32;35384;-66
2022/03/14 12:49:48;;;;;;;12.75;5.50;;;;;;;19.34;12.52;101965.66;5354092;32;34455;-71
2022/03/14 12:52:59;;;;;;;12.60;6.05;;;;;;;23.11;10.24;101950.66;5355729;32;34752;-72
2022/03/14 12:56:04;;;;;;;13.98;5.97;;;;;;;21.52;11.12;101956.25;5367649;32;46185;-65
2022/03/14 12:59:07;;;;;;;9.30;5.53;;;;;;;23.86;9.54;101949.06;5350095;32;34687;-66
2022/03/14 13:02:25;;;;;;;10.30;5.85;;;;;;;23.44;9.88;101937.66;5356129;32;35265;-72
2022/03/14 13:05:28;;;;;;;10.88;5.95;;;;;;;24.22;9.51;101931.31;5374339;32;44465;-73
2022/03/14 13:08:31;;;;;;;11.25;6.28;;;;;;;23.93;9.59;101944.12;5332927;32;34961;-66
2022/03/14 13:11:35;;;;;;;11.95;6.28;;;;;;;23.05;10.20;101946.53;5375831;32;34982;-72
2022/03/14 13:14:41;;;;;;;10.10;5.78;;;;;;;22.65;10.19;101949.16;5350818;32;34840;-66
2022/03/14 13:17:49;;;;;;;11.30;5.22;;;;;;;20.53;11.74;101953.97;5362102;32;34180;-65
2022/03/14 13:20:51;;;;;;;10.82;6.00;;;;;;;23.47;10.39;101948.16;5355322;32;34344;-72
2022/03/14 13:24:06;;;;;;;11.38;5.45;;;;;;;22.36;10.92;101943.03;5357020;32;34148;-66
2022/03/14 13:27:09;;;;;;;18.67;10.63;;;;;;;23.81;10.25;101936.91;5374648;32;35864;-66
2022/03/14 13:30:11;;;;;;;;;;;;;;;26.36;8.67;101939.97;5349941;32;34021;-72
2022/03/14 13:33:24;;;;;;;10.60;6.20;;;;;;;27.29;7.92;101934.06;5373129;32;34039;-69
2022/03/14 13:36:27;;;;;;;9.07;5.32;;;;;;;26.84;8.30;101939.63;5346040;32;35229;-66
2022/03/14 13:39:29;;;;;;;11.88;6.47;;;;;;;29.68;6.56;101924.13;5352025;32;46958;-65
2022/03/14 13:42:36;;;;;;;7.55;5.05;;;;;;;29.86;6.62;101927.78;5347793;32;35356;-66
2022/03/14 13:45:38;;;;;;;11.00;6.00;;;;;;;29.93;6.53;101930.75;5326619;32;35173;-67
2022/03/14 13:48:49;;;;;;;;;;;;;;;27.59;7.50;101945.91;5344481;32;34963;-69
2022/03/14 13:51:51;;;;;;;9.15;5.05;;;;;;;28.11;7.27;101952.19;5362593;32;34246;-64
2022/03/14 13:54:54;;;;;;;14.68;5.40;;;;;;;23.26;10.06;101954.12;5369877;32;34589;-72
2022/03/14 13:58:00;;;;;;;11.15;6.20;;;;;;;18.08;13.93;101970.78;5360478;32;36258;-64
2022/03/14 14:01:02;;;;;;;18.20;11.12;;;;;;;16.65;15.69;101964.41;5360052;32;44434;-72
2022/03/14 14:04:15;;;;;;;10.57;5.10;;;;;;;15.81;16.32;101967.59;5377235;32;34171;-66
2022/03/14 14:07:28;;;;;;;11.23;5.28;;;;;;;17.45;15.15;101954.06;5345102;32;34131;-65